sensor_id;sensor_type;location;lat;lon;timestamp;pressure;altitude;pressure_sealevel;temperature;humidity
30338;BME280;17143;51.888;5.408;2022-08-16T00:07:29;100401.97;;;23.77;65.56
30338;BME280;17143;51.888;5.408;2022-08-16T00:22:31;100406.56;;;23.46;67.34
30338;BME280;17143;51.888;5.408;2022-08-16T00:37:33;100427.06;;;23.15;68.86
30338;BME280;17143;51.888;5.408;2022-08-16T00:52:35;100415.63;;;22.92;69.76
30338;BME280;17143;51.888;5.408;2022-08-16T01:07:37;100428.06;;;22.84;69.87
30338;BME280;17143;51.888;5.408;2022-08-16T01:22:53;100422.78;;;22.67;70.23
30338;BME280;17143;51.888;5.408;2022-08-16T01:38:14;100428.97;;;22.53;70.91
30338;BME280;17143;51.888;5.408;2022-08-16T01:53:17;100409.50;;;22.35;71.13
30338;BME280;17143;51.888;5.408;2022-08-16T02:08:37;100418.38;;;22.13;72.11
30338;BME280;17143;51.888;5.408;2022-08-16T02:23:39;100417.44;;;21.98;72.30
30338;BME280;17143;51.888;5.408;2022-08-16T02:38:41;100421.81;;;21.85;72.74
30338;BME280;17143;51.888;5.408;2022-08-16T02:53:47;100409.41;;;21.67;73.50
30338;BME280;17143;51.888;5.408;2022-08-16T03:08:50;100397.00;;;21.56;73.83
30338;BME280;17143;51.888;5.408;2022-08-16T03:23:54;100389.88;;;21.34;75.07
30338;BME280;17143;51.888;5.408;2022-08-16T03:38:57;100407.50;;;21.27;75.24
30338;BME280;17143;51.888;5.408;2022-08-16T03:53:59;100420.72;;;21.12;76.69
30338;BME280;17143;51.888;5.408;2022-08-16T04:09:01;100439.13;;;20.94;77.55
30338;BME280;17143;51.888;5.408;2022-08-16T04:24:04;100449.69;;;20.86;77.76
30338;BME280;17143;51.888;5.408;2022-08-16T04:39:06;100457.59;;;20.83;78.35
30338;BME280;17143;51.888;5.408;2022-08-16T04:54:09;100467.28;;;20.84;78.79
30338;BME280;17143;51.888;5.408;2022-08-16T05:09:12;100472.56;;;20.78;79.97
30338;BME280;17143;51.888;5.408;2022-08-16T05:24:14;100485.16;;;21.06;79.93
30338;BME280;17143;51.888;5.408;2022-08-16T05:39:16;100482.06;;;22.31;77.60
30338;BME280;17143;51.888;5.408;2022-08-16T05:54:19;100495.72;;;25.97;67.37
30338;BME280;17143;51.888;5.408;2022-08-16T06:09:21;100514.91;;;28.18;60.58
30338;BME280;17143;51.888;5.408;2022-08-16T06:24:24;100520.16;;;28.96;55.68
30338;BME280;17143;51.888;5.408;2022-08-16T06:39:26;100529.38;;;29.18;53.25
30338;BME280;17143;51.888;5.408;2022-08-16T06:54:42;100533.81;;;30.14;51.47
30338;BME280;17143;51.888;5.408;2022-08-16T07:09:44;100538.53;;;30.36;50.07
30338;BME280;17143;51.888;5.408;2022-08-16T07:24:47;100555.22;;;31.01;49.24
30338;BME280;17143;51.888;5.408;2022-08-16T07:39:49;100556.25;;;31.23;47.71
30338;BME280;17143;51.888;5.408;2022-08-16T07:54:53;100578.69;;;31.50;47.43
30338;BME280;17143;51.888;5.408;2022-08-16T08:09:56;100580.66;;;31.43;47.54
30338;BME280;17143;51.888;5.408;2022-08-16T08:25:00;100601.00;;;32.03;46.64
30338;BME280;17143;51.888;5.408;2022-08-16T08:40:03;100598.84;;;32.80;44.87
30338;BME280;17143;51.888;5.408;2022-08-16T08:55:07;100603.72;;;32.47;44.41
30338;BME280;17143;51.888;5.408;2022-08-16T09:10:10;100617.16;;;33.16;43.84
30338;BME280;17143;51.888;5.408;2022-08-16T09:25:13;100636.25;;;33.33;43.84
30338;BME280;17143;51.888;5.408;2022-08-16T09:40:15;100632.63;;;33.74;42.41
30338;BME280;17143;51.888;5.408;2022-08-16T09:55:18;100645.63;;;33.44;42.76
30338;BME280;17143;51.888;5.408;2022-08-16T10:10:22;100643.88;;;33.65;43.34
30338;BME280;17143;51.888;5.408;2022-08-16T10:25:24;100646.53;;;34.25;42.11
30338;BME280;17143;51.888;5.408;2022-08-16T10:40:26;100643.34;;;34.92;40.47
30338;BME280;17143;51.888;5.408;2022-08-16T10:55:28;100663.41;;;33.50;42.84
30338;BME280;17143;51.888;5.408;2022-08-16T11:10:32;100666.50;;;32.97;44.06
30338;BME280;17143;51.888;5.408;2022-08-16T11:25:34;100675.84;;;33.12;44.17
30338;BME280;17143;51.888;5.408;2022-08-16T11:40:38;100684.53;;;33.82;42.31
30338;BME280;17143;51.888;5.408;2022-08-16T11:55:41;100691.59;;;33.86;40.24
30338;BME280;17143;51.888;5.408;2022-08-16T12:10:43;100698.69;;;33.89;41.36
30338;BME280;17143;51.888;5.408;2022-08-16T12:25:45;100708.69;;;33.00;42.00
30338;BME280;17143;51.888;5.408;2022-08-16T12:40:48;100716.06;;;32.73;42.11
30338;BME280;17143;51.888;5.408;2022-08-16T12:55:50;100711.78;;;32.68;42.29
30338;BME280;17143;51.888;5.408;2022-08-16T13:10:53;100713.47;;;32.93;42.86
30338;BME280;17143;51.888;5.408;2022-08-16T13:25:55;100722.94;;;32.59;44.26
30338;BME280;17143;51.888;5.408;2022-08-16T13:40:57;100714.66;;;33.09;42.91
30338;BME280;17143;51.888;5.408;2022-08-16T13:55:59;100722.25;;;33.22;41.88
30338;BME280;17143;51.888;5.408;2022-08-16T14:11:01;100722.50;;;33.37;42.35
30338;BME280;17143;51.888;5.408;2022-08-16T14:26:03;100721.44;;;33.20;39.92
30338;BME280;17143;51.888;5.408;2022-08-16T14:41:05;100721.69;;;33.14;39.18
30338;BME280;17143;51.888;5.408;2022-08-16T14:56:07;100716.88;;;32.98;38.90
30338;BME280;17143;51.888;5.408;2022-08-16T15:11:09;100722.75;;;32.63;39.87
30338;BME280;17143;51.888;5.408;2022-08-16T15:26:11;100725.72;;;32.80;40.82
30338;BME280;17143;51.888;5.408;2022-08-16T15:41:33;100721.84;;;32.39;41.37
30338;BME280;17143;51.888;5.408;2022-08-16T15:56:54;100733.09;;;32.03;41.79
30338;BME280;17143;51.888;5.408;2022-08-16T16:11:56;100738.78;;;31.67;41.52
30338;BME280;17143;51.888;5.408;2022-08-16T16:26:58;100734.59;;;31.59;42.15
30338;BME280;17143;51.888;5.408;2022-08-16T16:42:02;100726.22;;;31.68;43.00
30338;BME280;17143;51.888;5.408;2022-08-16T16:57:04;100733.78;;;31.29;43.14
30338;BME280;17143;51.888;5.408;2022-08-16T17:12:06;100743.88;;;30.95;42.05
30338;BME280;17143;51.888;5.408;2022-08-16T17:27:09;100735.09;;;30.57;40.19
30338;BME280;17143;51.888;5.408;2022-08-16T17:42:12;100727.66;;;30.36;41.41
30338;BME280;17143;51.888;5.408;2022-08-16T17:57:14;100741.53;;;30.20;43.30
30338;BME280;17143;51.888;5.408;2022-08-16T18:12:17;100737.78;;;29.93;44.82
30338;BME280;17143;51.888;5.408;2022-08-16T18:27:20;100732.00;;;29.74;45.38
30338;BME280;17143;51.888;5.408;2022-08-16T18:42:22;100735.72;;;29.33;46.45
30338;BME280;17143;51.888;5.408;2022-08-16T18:57:24;100750.75;;;29.02;47.59
30338;BME280;17143;51.888;5.408;2022-08-16T19:12:27;100760.50;;;28.65;49.29
30338;BME280;17143;51.888;5.408;2022-08-16T19:27:29;100783.13;;;28.04;54.23
30338;BME280;17143;51.888;5.408;2022-08-16T19:42:31;100812.47;;;27.57;59.31
30338;BME280;17143;51.888;5.408;2022-08-16T19:57:33;100839.53;;;27.36;62.35
30338;BME280;17143;51.888;5.408;2022-08-16T20:12:36;100847.09;;;27.03;64.12
30338;BME280;17143;51.888;5.408;2022-08-16T20:27:40;100852.84;;;26.70;66.81
30338;BME280;17143;51.888;5.408;2022-08-16T20:42:43;100854.03;;;26.43;68.75
30338;BME280;17143;51.888;5.408;2022-08-16T20:57:45;100853.50;;;26.00;69.97
30338;BME280;17143;51.888;5.408;2022-08-16T21:12:48;100854.63;;;25.71;71.68
30338;BME280;17143;51.888;5.408;2022-08-16T21:27:51;100855.69;;;25.47;72.80
30338;BME280;17143;51.888;5.408;2022-08-16T21:42:53;100857.56;;;25.27;73.72
30338;BME280;17143;51.888;5.408;2022-08-16T21:57:56;100854.97;;;25.07;74.68
30338;BME280;17143;51.888;5.408;2022-08-16T22:12:58;100848.88;;;24.86;76.08
30338;BME280;17143;51.888;5.408;2022-08-16T22:28:00;100851.56;;;24.78;76.59
30338;BME280;17143;51.888;5.408;2022-08-16T22:43:02;100855.13;;;24.63;77.00
30338;BME280;17143;51.888;5.408;2022-08-16T22:58:05;100855.13;;;24.54;77.25
30338;BME280;17143;51.888;5.408;2022-08-16T23:13:07;100854.31;;;24.43;77.48
30338;BME280;17143;51.888;5.408;2022-08-16T23:28:10;100851.66;;;24.23;78.32
30338;BME280;17143;51.888;5.408;2022-08-16T23:43:14;100841.91;;;24.15;78.28
30338;BME280;17143;51.888;5.408;2022-08-16T23:58:18;100824.13;;;24.08;77.47
